Pagina principală
METAR-TAF:

METAR-TAF

Aeroporturi :

San José, Costa Rica

Latitudine: 10-00N, longitudine: 084-13W, elevație: 920 m

Observații meteo curente

Raportul a fost făcut în urmă cu 1 oră și 7 de minute, la 03:00 UTC
Vânt 15 kt de la Est
Temperatură 23°C
Umiditate 53%
Presiune 1016 hPa
Vizibilitate de 10 km sau mai mult
Nori puțini la o înălțime de 4500 picior

METAR: MROC 290300Z 08015KT 9999 FEW045 23/13 A3001 NOSIG

Ora: 22:07 (04:07 UTC)

Prognoză

Raportul a fost făcut în urmă cu 5 ore și 7 de minute, la 23:00 UTC
Prognoză valabilă de la 29 ora 00 UTC la 29 ora 24 UTC
Vânt 15 kt de la Est cu rafale de până la 26 kt
Vizibilitate de 10 km sau mai mult
Nori puțini la o înălțime de 4000 picior
Temporar
de la 29 ora 14 UTC la 29 ora 21 UTC
Vânt 18 kt de la Est/Sud-est cu rafale de până la 30 kt

TAF: MROC 282300Z 2900/2924 09015G26KT 9999 FEW040 TX30/2919Z TN20/2910Z TEMPO 2914/2921 11018G30KT

Observații și prognoze meteo pentru peste 4.000 de aeroporturi (rapoarte METAR și TAF).

Stațiile disponibile sunt reprezentate pe hartă prin puncte galbene și roșii.

Țineți indicatorul mouse-ului pe punctul dorit pentru a vedea denumirea stației.

Apoi, faceți clic pentru a vedea observațiile și prognozele meteorologice.

Pentru a schimba harta: Pentru mărire, faceți clic pe butoanele verzi cu cruce neagră; pentru micșorare, pe butonul verde cu o liniuță; pentru hărți învecinate, pe săgețile verzi.


METAR-TAF: